createdAt,value
2023-02-09T00:00:10.999Z,-1.74
2023-02-09T00:02:41.049Z,-2.01
2023-02-09T00:05:09.148Z,-1.92
2023-02-09T00:07:36.147Z,-2.23
2023-02-09T00:10:04.337Z,-2.06
2023-02-09T00:12:49.729Z,-2.00
2023-02-09T00:15:16.671Z,-1.93
2023-02-09T00:17:43.505Z,-1.95
2023-02-09T00:20:11.223Z,-2.14
2023-02-09T00:22:38.095Z,-2.13
2023-02-09T00:25:05.204Z,-2.22
2023-02-09T00:27:35.560Z,-2.14
2023-02-09T00:30:04.077Z,-2.14
2023-02-09T00:32:32.479Z,-2.07
2023-02-09T00:34:59.896Z,-2.08
2023-02-09T00:37:28.306Z,-2.16
2023-02-09T00:39:55.140Z,-2.02
2023-02-09T00:42:22.005Z,-2.06
2023-02-09T00:44:49.838Z,-1.97
2023-02-09T00:47:16.710Z,-1.82
2023-02-09T00:49:43.649Z,-1.90
2023-02-09T00:52:10.615Z,-1.86
2023-02-09T00:54:38.092Z,-1.83
2023-02-09T00:57:05.594Z,-2.16
2023-02-09T00:59:35.476Z,-2.31
2023-02-09T01:02:02.945Z,-2.17
2023-02-09T01:04:29.839Z,-2.21
2023-02-09T01:06:56.892Z,-2.28
2023-02-09T01:09:24.046Z,-2.26
2023-02-09T01:11:51.013Z,-2.26
2023-02-09T01:14:18.074Z,-2.34
2023-02-09T01:16:44.980Z,-2.36
2023-02-09T01:19:14.330Z,-2.32
2023-02-09T01:21:41.783Z,-2.22
2023-02-09T01:24:14.029Z,-2.16
2023-02-09T01:26:41.435Z,-2.19
2023-02-09T01:29:14.976Z,-2.10
2023-02-09T01:31:42.609Z,-2.18
2023-02-09T01:34:17.588Z,-2.04
2023-02-09T01:36:45.559Z,-2.00
2023-02-09T01:39:13.620Z,-1.99
2023-02-09T01:41:40.909Z,-2.02
2023-02-09T01:44:16.365Z,-1.89
2023-02-09T01:46:46.557Z,-1.82
2023-02-09T01:49:22.546Z,-1.80
2023-02-09T01:51:55.911Z,-1.91
2023-02-09T01:54:32.439Z,-2.05
2023-02-09T01:57:10.180Z,-2.06
2023-02-09T01:59:40.581Z,-2.22
2023-02-09T02:02:08.849Z,-2.24
2023-02-09T02:04:37.068Z,-2.34
2023-02-09T02:07:31.197Z,-2.41
2023-02-09T02:09:59.877Z,-2.29
2023-02-09T02:12:27.236Z,-2.14
2023-02-09T02:14:54.134Z,-2.17
2023-02-09T02:17:36.757Z,-2.01
2023-02-09T02:20:24.416Z,-2.20
2023-02-09T02:23:23.138Z,-2.19
2023-02-09T02:26:08.921Z,-2.34
2023-02-09T02:28:53.160Z,-2.54
2023-02-09T02:31:48.998Z,-2.58
2023-02-09T02:34:38.063Z,-2.79
2023-02-09T02:37:23.222Z,-2.58
2023-02-09T02:39:50.094Z,-2.48
2023-02-09T02:42:49.428Z,-2.57
2023-02-09T02:45:26.114Z,-2.67
2023-02-09T02:47:59.316Z,-2.48
2023-02-09T02:50:29.661Z,-2.60
2023-02-09T02:53:00.585Z,-2.63
2023-02-09T02:55:32.173Z,-2.58
2023-02-09T02:58:03.398Z,-2.50
2023-02-09T03:00:38.123Z,-2.60
2023-02-09T03:03:11.951Z,-2.64
2023-02-09T03:05:39.343Z,-2.51
2023-02-09T03:08:06.280Z,-2.61
2023-02-09T03:10:37.438Z,-2.46
2023-02-09T03:13:30.822Z,-2.50
2023-02-09T03:16:34.044Z,-2.34
2023-02-09T03:19:33.070Z,-2.36
2023-02-09T03:22:26.999Z,-2.49
2023-02-09T03:25:01.625Z,-2.38
2023-02-09T03:28:08.571Z,-2.59
2023-02-09T03:30:36.441Z,-2.64
2023-02-09T03:33:04.578Z,-2.52
2023-02-09T03:35:39.395Z,-2.54
2023-02-09T03:38:07.302Z,-2.51
2023-02-09T03:40:35.100Z,-2.42
2023-02-09T03:43:01.958Z,-2.55
2023-02-09T03:45:28.850Z,-2.72
2023-02-09T03:47:55.660Z,-2.80
2023-02-09T03:50:22.541Z,-2.75
2023-02-09T03:52:50.842Z,-2.43
2023-02-09T03:55:17.743Z,-2.33
2023-02-09T03:57:44.636Z,-2.43
2023-02-09T04:00:12.448Z,-2.38
2023-02-09T04:02:39.239Z,-2.59
2023-02-09T04:05:06.576Z,-2.65
2023-02-09T04:07:33.657Z,-2.59
2023-02-09T04:10:00.546Z,-2.78
2023-02-09T04:12:27.434Z,-2.78
2023-02-09T04:14:54.349Z,-2.71
2023-02-09T04:17:21.176Z,-2.53
2023-02-09T04:19:48.023Z,-2.50
2023-02-09T04:22:14.911Z,-2.52
2023-02-09T04:24:44.113Z,-2.50
2023-02-09T04:27:10.988Z,-2.53
2023-02-09T04:29:37.784Z,-2.57
2023-02-09T04:32:04.954Z,-2.57
2023-02-09T04:34:31.821Z,-2.48
2023-02-09T04:36:58.672Z,-2.46
2023-02-09T04:39:25.642Z,-2.70
2023-02-09T04:41:52.431Z,-2.82
2023-02-09T04:44:19.301Z,-2.80
2023-02-09T04:46:46.118Z,-2.89
2023-02-09T04:49:13.027Z,-2.87
2023-02-09T04:51:39.822Z,-2.95
2023-02-09T04:54:06.730Z,-2.95
2023-02-09T04:56:33.683Z,-2.75
2023-02-09T04:59:18.993Z,-2.71
2023-02-09T05:01:45.906Z,-2.68
2023-02-09T05:04:12.712Z,-2.59
2023-02-09T05:06:39.566Z,-2.57
2023-02-09T05:09:06.458Z,-2.54
2023-02-09T05:11:33.239Z,-2.49
2023-02-09T05:14:00.003Z,-2.56
2023-02-09T05:16:26.908Z,-2.53
2023-02-09T05:18:53.934Z,-2.63
2023-02-09T05:21:20.817Z,-2.63
2023-02-09T05:23:47.614Z,-2.65
2023-02-09T05:26:14.500Z,-2.67
2023-02-09T05:28:41.380Z,-2.64
2023-02-09T05:31:08.237Z,-2.52
2023-02-09T05:33:35.103Z,-2.48
2023-02-09T05:36:03.998Z,-2.41
2023-02-09T05:38:30.887Z,-2.38
2023-02-09T05:40:57.560Z,-2.14
2023-02-09T05:43:24.429Z,-1.89
2023-02-09T05:45:51.248Z,-1.31
2023-02-09T05:48:18.133Z,-1.12
2023-02-09T05:50:45.292Z,-0.74
2023-02-09T05:53:15.797Z,-0.91
2023-02-09T05:55:44.276Z,-0.57
2023-02-09T05:58:11.101Z,-0.41
2023-02-09T06:00:37.965Z,0.12
2023-02-09T06:03:04.934Z,0.29
2023-02-09T06:05:31.814Z,0.39
2023-02-09T06:07:58.629Z,0.25
2023-02-09T06:10:25.412Z,0.27
2023-02-09T06:12:52.219Z,0.33
2023-02-09T06:15:19.157Z,0.38
2023-02-09T06:17:46.575Z,0.47
2023-02-09T06:20:13.502Z,0.55
2023-02-09T06:22:40.517Z,0.69
2023-02-09T06:25:07.796Z,0.66
2023-02-09T06:27:34.910Z,0.63
2023-02-09T06:30:01.759Z,0.96
2023-02-09T06:32:28.575Z,1.09
2023-02-09T06:34:55.466Z,1.23
2023-02-09T06:37:22.381Z,1.13
2023-02-09T06:39:49.264Z,1.46
2023-02-09T06:42:16.195Z,1.22
2023-02-09T06:44:42.977Z,1.44
2023-02-09T06:47:09.977Z,1.74
2023-02-09T06:49:36.780Z,1.86
2023-02-09T06:52:04.169Z,2.04
2023-02-09T06:54:31.057Z,2.01
2023-02-09T06:56:57.966Z,2.08
2023-02-09T06:59:24.932Z,2.19
2023-02-09T07:01:54.763Z,2.46
2023-02-09T07:04:22.334Z,2.45
2023-02-09T07:06:49.139Z,2.46
2023-02-09T07:09:15.954Z,2.24
2023-02-09T07:11:43.860Z,2.37
2023-02-09T07:14:10.926Z,2.51
2023-02-09T07:16:37.777Z,2.43
2023-02-09T07:19:04.708Z,2.29
2023-02-09T07:21:31.554Z,2.55
2023-02-09T07:23:58.404Z,2.67
2023-02-09T07:26:25.306Z,2.81
2023-02-09T07:28:52.202Z,2.69
2023-02-09T07:31:19.528Z,2.88
2023-02-09T07:33:46.526Z,3.20
2023-02-09T07:36:15.413Z,3.09
2023-02-09T07:38:42.764Z,3.13
2023-02-09T07:41:18.198Z,3.15
2023-02-09T07:43:46.032Z,3.25
2023-02-09T07:46:16.258Z,3.63
2023-02-09T07:48:43.311Z,3.55
2023-02-09T07:51:19.911Z,3.43
2023-02-09T07:53:47.914Z,3.43
2023-02-09T07:56:14.855Z,3.63
2023-02-09T07:58:41.745Z,3.59
2023-02-09T08:01:11.303Z,3.95
2023-02-09T08:03:39.195Z,3.80
2023-02-09T08:06:19.603Z,3.96
2023-02-09T08:08:49.033Z,4.06
2023-02-09T08:11:18.675Z,4.22
2023-02-09T08:13:47.600Z,4.41
2023-02-09T08:16:18.046Z,4.28
2023-02-09T08:18:57.759Z,4.40
2023-02-09T08:21:25.835Z,4.59
2023-02-09T08:23:55.962Z,4.13
2023-02-09T08:26:23.247Z,4.43
2023-02-09T08:28:51.490Z,4.95
2023-02-09T08:31:20.327Z,5.31
2023-02-09T08:33:49.636Z,5.12
2023-02-09T08:36:18.486Z,5.19
2023-02-09T08:38:46.303Z,5.47
2023-02-09T08:41:15.116Z,5.37
2023-02-09T08:43:42.384Z,5.32
2023-02-09T08:46:12.574Z,5.47
2023-02-09T08:48:41.960Z,5.64
2023-02-09T08:51:09.984Z,5.35
2023-02-09T08:53:37.200Z,5.31
2023-02-09T08:56:04.415Z,5.46
2023-02-09T08:58:33.415Z,5.70
2023-02-09T09:01:00.593Z,5.75
2023-02-09T09:03:31.672Z,5.58
2023-02-09T09:06:07.065Z,5.43
2023-02-09T09:08:35.505Z,5.61
2023-02-09T09:11:02.601Z,5.73
2023-02-09T09:13:29.998Z,5.64
2023-02-09T09:15:56.781Z,5.92
2023-02-09T09:18:25.382Z,5.95
2023-02-09T09:20:53.144Z,5.80
2023-02-09T09:23:21.454Z,5.85
2023-02-09T09:25:48.688Z,5.95
2023-02-09T09:28:16.174Z,6.10
2023-02-09T09:30:43.016Z,6.41
2023-02-09T09:33:09.935Z,6.37
2023-02-09T09:35:36.801Z,6.50
2023-02-09T09:38:04.801Z,6.49
2023-02-09T09:40:35.118Z,6.34
2023-02-09T09:43:08.841Z,6.56
2023-02-09T09:45:39.070Z,6.67
2023-02-09T09:48:17.790Z,6.61
2023-02-09T09:50:45.881Z,6.50
2023-02-09T09:53:25.267Z,6.57
2023-02-09T09:55:56.402Z,6.78
2023-02-09T09:58:23.277Z,6.74
2023-02-09T10:00:51.534Z,6.75
2023-02-09T10:03:20.990Z,6.67
2023-02-09T10:05:53.539Z,6.79
2023-02-09T10:08:35.468Z,6.97
2023-02-09T10:11:08.908Z,6.57
2023-02-09T10:13:44.375Z,6.28
2023-02-09T10:16:18.133Z,6.63
2023-02-09T10:18:45.681Z,6.94
2023-02-09T10:21:14.980Z,7.04
2023-02-09T10:23:41.896Z,6.84
2023-02-09T10:26:08.668Z,6.81
2023-02-09T10:28:45.446Z,6.57
2023-02-09T10:31:30.897Z,6.71
2023-02-09T10:34:19.286Z,6.38
2023-02-09T10:36:46.006Z,6.48
2023-02-09T10:39:19.857Z,6.68
2023-02-09T10:41:50.426Z,6.82
2023-02-09T10:44:19.371Z,6.72
2023-02-09T10:46:47.590Z,6.94
2023-02-09T10:49:29.069Z,6.96
2023-02-09T10:52:17.444Z,6.82
2023-02-09T10:54:51.854Z,6.86
2023-02-09T10:57:33.938Z,6.79
2023-02-09T11:00:17.588Z,6.75
2023-02-09T11:02:54.983Z,6.92
2023-02-09T11:05:21.951Z,6.83
2023-02-09T11:08:22.372Z,6.95
2023-02-09T11:11:00.196Z,7.09
2023-02-09T11:13:28.020Z,6.99
2023-02-09T11:16:15.625Z,6.92
2023-02-09T11:18:46.217Z,6.94
2023-02-09T11:21:29.282Z,6.78
2023-02-09T11:24:14.572Z,6.99
2023-02-09T11:26:53.378Z,7.05
2023-02-09T11:29:58.573Z,7.12
2023-02-09T11:32:46.991Z,7.00
2023-02-09T11:35:19.027Z,6.90
2023-02-09T11:38:13.621Z,6.96
2023-02-09T11:40:53.830Z,6.56
2023-02-09T11:43:36.593Z,6.90
2023-02-09T11:46:15.566Z,6.86
2023-02-09T11:48:50.141Z,7.19
2023-02-09T11:51:21.022Z,7.19
2023-02-09T11:54:12.694Z,7.42
2023-02-09T11:56:44.513Z,7.31
2023-02-09T11:59:36.856Z,7.00
2023-02-09T12:02:38.209Z,7.25
2023-02-09T12:05:07.431Z,7.22
2023-02-09T12:07:43.712Z,7.43
2023-02-09T12:10:25.307Z,7.49
2023-02-09T12:13:02.969Z,7.51
2023-02-09T12:15:38.519Z,7.34
2023-02-09T12:18:16.272Z,7.56
2023-02-09T12:20:58.113Z,7.58
2023-02-09T12:23:41.675Z,7.81
2023-02-09T12:26:11.509Z,7.94
2023-02-09T12:28:47.925Z,7.01
2023-02-09T12:31:27.146Z,7.29
2023-02-09T12:33:59.963Z,7.63
2023-02-09T12:36:34.644Z,7.81
2023-02-09T12:39:25.193Z,7.65
2023-02-09T12:41:52.087Z,7.96
2023-02-09T12:44:19.498Z,7.47
2023-02-09T12:46:53.617Z,7.08
2023-02-09T12:49:21.658Z,7.33
2023-02-09T12:51:54.452Z,7.45
2023-02-09T12:54:53.446Z,7.55
2023-02-09T12:57:24.006Z,7.60
2023-02-09T12:59:53.565Z,7.66
2023-02-09T13:02:59.942Z,7.63
2023-02-09T13:05:33.133Z,7.74
2023-02-09T13:08:06.126Z,7.72
2023-02-09T13:11:07.200Z,7.87
2023-02-09T13:13:44.222Z,7.40
2023-02-09T13:16:20.421Z,7.46
2023-02-09T13:19:42.512Z,7.23
2023-02-09T13:22:32.198Z,7.38
2023-02-09T13:25:02.053Z,7.19
2023-02-09T13:27:30.214Z,6.75
2023-02-09T13:29:59.323Z,6.69
2023-02-09T13:32:32.613Z,6.87
2023-02-09T13:35:27.560Z,6.81
2023-02-09T13:37:59.753Z,7.00
2023-02-09T13:40:30.895Z,7.06
2023-02-09T13:43:12.920Z,6.72
2023-02-09T13:45:48.834Z,6.69
2023-02-09T13:48:31.741Z,6.62
2023-02-09T13:51:04.723Z,6.76
2023-02-09T13:53:32.011Z,5.91
2023-02-09T13:56:00.622Z,6.12
2023-02-09T13:58:37.246Z,5.73
2023-02-09T14:01:16.719Z,5.68
2023-02-09T14:03:58.115Z,5.83
2023-02-09T14:06:40.347Z,6.20
2023-02-09T14:09:15.748Z,6.08
2023-02-09T14:11:52.221Z,6.02
2023-02-09T14:14:26.517Z,5.82
2023-02-09T14:17:24.539Z,5.47
2023-02-09T14:19:53.480Z,5.48
2023-02-09T14:22:39.750Z,5.67
2023-02-09T14:25:27.964Z,5.39
2023-02-09T14:27:56.135Z,5.16
2023-02-09T14:30:32.145Z,5.03
2023-02-09T14:33:03.454Z,5.04
2023-02-09T14:35:41.454Z,5.14
2023-02-09T14:38:53.255Z,4.82
2023-02-09T14:41:34.688Z,4.22
2023-02-09T14:44:13.708Z,4.53
2023-02-09T14:47:30.382Z,4.51
2023-02-09T14:49:59.681Z,4.79
2023-02-09T14:52:32.769Z,4.53
2023-02-09T14:55:05.169Z,4.28
2023-02-09T14:57:32.862Z,3.90
2023-02-09T14:59:59.654Z,3.89
2023-02-09T15:02:27.966Z,3.90
2023-02-09T15:04:55.429Z,3.71
2023-02-09T15:07:29.911Z,3.40
2023-02-09T15:09:56.795Z,3.25
2023-02-09T15:12:28.331Z,3.24
2023-02-09T15:15:00.332Z,3.27
2023-02-09T15:17:31.897Z,3.17
2023-02-09T15:19:59.362Z,2.75
2023-02-09T15:22:26.267Z,2.64
2023-02-09T15:24:54.617Z,2.73
2023-02-09T15:27:29.248Z,2.64
2023-02-09T15:29:59.074Z,2.47
2023-02-09T15:32:27.122Z,2.33
2023-02-09T15:34:54.438Z,2.20
2023-02-09T15:37:27.076Z,1.97
2023-02-09T15:39:57.232Z,1.81
2023-02-09T15:42:42.618Z,1.80
2023-02-09T15:45:41.876Z,1.46
2023-02-09T15:48:09.319Z,1.51
2023-02-09T15:50:39.360Z,1.30
2023-02-09T15:53:10.298Z,1.63
2023-02-09T15:55:37.728Z,1.52
2023-02-09T15:58:10.638Z,1.60
2023-02-09T16:00:37.478Z,1.49
2023-02-09T16:03:15.408Z,1.53
2023-02-09T16:05:43.093Z,1.33
2023-02-09T16:08:35.610Z,1.41
2023-02-09T16:11:02.785Z,1.34
2023-02-09T16:13:29.631Z,1.05
2023-02-09T16:16:05.058Z,0.96
2023-02-09T16:18:38.098Z,0.78
2023-02-09T16:21:06.635Z,0.72
2023-02-09T16:23:35.070Z,0.90
2023-02-09T16:26:05.249Z,0.91
2023-02-09T16:28:32.413Z,0.88
2023-02-09T16:30:59.548Z,0.87
2023-02-09T16:33:26.533Z,0.92
2023-02-09T16:36:02.833Z,0.89
2023-02-09T16:38:30.477Z,0.75
2023-02-09T16:40:57.347Z,0.66
2023-02-09T16:43:24.268Z,0.63
2023-02-09T16:46:02.791Z,0.41
2023-02-09T16:48:32.308Z,0.29
2023-02-09T16:50:59.516Z,0.36
2023-02-09T16:53:37.192Z,0.11
2023-02-09T16:56:10.215Z,0.11
2023-02-09T16:58:38.239Z,0.11
2023-02-09T17:01:18.491Z,0.17
2023-02-09T17:03:48.751Z,0.37
2023-02-09T17:06:22.385Z,0.38
2023-02-09T17:08:49.697Z,0.59
2023-02-09T17:11:25.259Z,0.36
2023-02-09T17:13:52.125Z,0.32
2023-02-09T17:16:24.692Z,0.01
2023-02-09T17:18:53.589Z,0.11
2023-02-09T17:21:24.027Z,0.24
2023-02-09T17:23:52.035Z,0.24
2023-02-09T17:26:19.519Z,0.09
2023-02-09T17:28:47.375Z,-0.02
2023-02-09T17:31:20.176Z,0.07
2023-02-09T17:33:50.228Z,0.08
2023-02-09T17:36:26.314Z,-0.01
2023-02-09T17:38:53.795Z,-0.01
2023-02-09T17:41:44.874Z,-0.05
2023-02-09T17:44:34.888Z,0.14
2023-02-09T17:47:06.464Z,0.19
2023-02-09T17:49:34.319Z,0.28
2023-02-09T17:52:01.368Z,0.28
2023-02-09T17:54:28.365Z,0.20
2023-02-09T17:56:55.213Z,0.12
2023-02-09T17:59:22.039Z,0.27
2023-02-09T18:01:51.993Z,0.02
2023-02-09T18:04:22.003Z,-0.03
2023-02-09T18:06:49.060Z,-0.48
2023-02-09T18:09:16.069Z,-0.38
2023-02-09T18:12:01.570Z,-0.54
2023-02-09T18:14:31.323Z,-0.71
2023-02-09T18:16:58.604Z,-0.69
2023-02-09T18:19:25.969Z,-0.68
2023-02-09T18:21:55.227Z,-0.65
2023-02-09T18:24:23.925Z,-0.66
2023-02-09T18:26:53.581Z,-0.84
2023-02-09T18:29:23.748Z,-1.09
2023-02-09T18:31:51.217Z,-0.82
2023-02-09T18:34:18.288Z,-0.71
2023-02-09T18:36:45.308Z,-0.75
2023-02-09T18:39:14.142Z,-0.59
2023-02-09T18:41:41.149Z,-0.78
2023-02-09T18:44:08.198Z,-0.75
2023-02-09T18:46:35.105Z,-0.65
2023-02-09T18:49:03.585Z,-0.81
2023-02-09T18:51:31.462Z,-1.07
2023-02-09T18:53:59.052Z,-0.74
2023-02-09T18:56:28.270Z,-0.96
2023-02-09T18:58:55.553Z,-1.00
2023-02-09T19:01:24.009Z,-0.87
2023-02-09T19:03:52.470Z,-1.10
2023-02-09T19:06:21.136Z,-0.87
2023-02-09T19:08:50.428Z,-0.89
2023-02-09T19:11:20.357Z,-0.87
2023-02-09T19:14:07.970Z,-0.92
2023-02-09T19:16:36.816Z,-1.59
2023-02-09T19:19:04.702Z,-1.71
2023-02-09T19:21:32.389Z,-1.60
2023-02-09T19:23:59.303Z,-1.67
2023-02-09T19:26:26.159Z,-1.60
2023-02-09T19:28:53.000Z,-1.50
2023-02-09T19:31:19.902Z,-1.40
2023-02-09T19:33:46.775Z,-1.19
2023-02-09T19:36:13.593Z,-1.33
2023-02-09T19:38:40.463Z,-1.48
2023-02-09T19:41:12.118Z,-1.54
2023-02-09T19:43:40.341Z,-1.40
2023-02-09T19:46:07.819Z,-1.40
2023-02-09T19:48:34.796Z,-1.42
2023-02-09T19:51:01.784Z,-1.29
2023-02-09T19:53:28.677Z,-1.41
2023-02-09T19:55:55.829Z,-1.38
2023-02-09T19:58:22.818Z,-1.21
2023-02-09T20:00:51.700Z,-1.16
2023-02-09T20:03:18.901Z,-1.16
2023-02-09T20:05:46.553Z,-1.35
2023-02-09T20:08:16.445Z,-1.52
2023-02-09T20:10:47.392Z,-1.51
2023-02-09T20:13:15.328Z,-1.61
2023-02-09T20:15:43.890Z,-1.74
2023-02-09T20:18:13.574Z,-1.67
2023-02-09T20:20:43.341Z,-1.75
2023-02-09T20:23:10.373Z,-1.93
2023-02-09T20:25:40.588Z,-1.84
2023-02-09T20:28:07.755Z,-1.95
2023-02-09T20:30:35.328Z,-1.97
2023-02-09T20:33:02.125Z,-1.97
2023-02-09T20:35:28.948Z,-1.86
2023-02-09T20:37:55.770Z,-1.77
2023-02-09T20:40:23.950Z,-1.83
2023-02-09T20:43:09.723Z,-1.89
2023-02-09T20:45:55.431Z,-1.86
2023-02-09T20:48:22.275Z,-1.93
2023-02-09T20:50:49.298Z,-2.01
2023-02-09T20:53:16.494Z,-2.07
2023-02-09T20:55:43.900Z,-2.14
2023-02-09T20:58:13.660Z,-2.19
2023-02-09T21:00:42.408Z,-2.22
2023-02-09T21:03:09.546Z,-2.04
2023-02-09T21:05:36.422Z,-2.08
2023-02-09T21:08:04.633Z,-2.12
2023-02-09T21:10:35.905Z,-2.35
2023-02-09T21:13:04.335Z,-2.52
2023-02-09T21:15:31.196Z,-2.56
2023-02-09T21:17:58.200Z,-2.65
2023-02-09T21:20:25.217Z,-2.71
2023-02-09T21:22:52.191Z,-2.72
2023-02-09T21:25:19.630Z,-2.76
2023-02-09T21:27:46.632Z,-2.84
2023-02-09T21:30:13.832Z,-2.95
2023-02-09T21:32:41.810Z,-2.92
2023-02-09T21:35:10.471Z,-2.97
2023-02-09T21:37:42.935Z,-3.00
2023-02-09T21:40:12.322Z,-3.11
2023-02-09T21:42:39.954Z,-2.96
2023-02-09T21:45:08.078Z,-3.19
2023-02-09T21:47:38.477Z,-3.10
2023-02-09T21:50:07.909Z,-3.03
2023-02-09T21:52:35.055Z,-3.01
2023-02-09T21:55:02.120Z,-2.87
2023-02-09T21:57:29.680Z,-2.79
2023-02-09T21:59:56.745Z,-2.96
2023-02-09T22:02:24.247Z,-2.82
2023-02-09T22:04:51.243Z,-2.81
2023-02-09T22:07:18.208Z,-2.75
2023-02-09T22:09:45.242Z,-2.85
2023-02-09T22:12:12.217Z,-3.05
2023-02-09T22:14:39.122Z,-3.12
2023-02-09T22:17:06.088Z,-2.97
2023-02-09T22:19:33.071Z,-3.07
2023-02-09T22:22:01.197Z,-2.97
2023-02-09T22:24:28.284Z,-3.05
2023-02-09T22:26:55.282Z,-2.84
2023-02-09T22:29:22.162Z,-2.74
2023-02-09T22:31:49.104Z,-2.96
2023-02-09T22:34:16.167Z,-2.91
2023-02-09T22:36:43.277Z,-2.98
2023-02-09T22:39:10.306Z,-3.04
2023-02-09T22:41:37.552Z,-2.98
2023-02-09T22:44:11.714Z,-2.74
2023-02-09T22:46:40.380Z,-2.73
2023-02-09T22:49:19.108Z,-2.63
2023-02-09T22:51:46.975Z,-2.68
2023-02-09T22:54:15.260Z,-2.87
2023-02-09T22:56:42.358Z,-2.82
2023-02-09T22:59:11.704Z,-2.96
2023-02-09T23:01:39.093Z,-3.01
2023-02-09T23:04:06.193Z,-3.05
2023-02-09T23:06:33.176Z,-3.15
2023-02-09T23:09:04.217Z,-3.07
2023-02-09T23:11:31.785Z,-3.02
2023-02-09T23:14:14.774Z,-2.97
2023-02-09T23:16:43.681Z,-2.99
2023-02-09T23:19:16.633Z,-2.97
2023-02-09T23:21:47.129Z,-2.92
2023-02-09T23:24:16.657Z,-3.16
2023-02-09T23:26:44.062Z,-3.03
2023-02-09T23:29:13.626Z,-3.16
2023-02-09T23:31:41.028Z,-3.35
2023-02-09T23:34:08.482Z,-3.53
2023-02-09T23:36:35.869Z,-3.44
2023-02-09T23:39:06.150Z,-3.15
2023-02-09T23:41:33.776Z,-3.13
2023-02-09T23:44:01.171Z,-3.35
2023-02-09T23:46:29.131Z,-3.27
2023-02-09T23:48:56.871Z,-3.24
2023-02-09T23:51:30.524Z,-3.27
2023-02-09T23:54:00.117Z,-3.19
2023-02-09T23:56:28.450Z,-3.35
2023-02-09T23:58:55.596Z,-3.32
